createdAt,value
2018-11-12T00:02:03.434Z,42.93
2018-11-12T00:04:33.534Z,40.70
2018-11-12T00:07:04.846Z,36.67
2018-11-12T00:09:36.083Z,40.20
2018-11-12T00:12:07.336Z,37.37
2018-11-12T00:14:37.648Z,43.40
2018-11-12T00:17:08.360Z,45.83
2018-11-12T00:19:39.609Z,45.20
2018-11-12T00:22:10.540Z,50.53
2018-11-12T00:24:41.510Z,45.57
2018-11-12T00:27:12.605Z,45.83
2018-11-12T00:29:43.628Z,45.53
2018-11-12T00:32:14.445Z,44.17
2018-11-12T00:34:44.473Z,47.43
2018-11-12T00:37:15.245Z,48.13
2018-11-12T00:39:46.122Z,41.73
2018-11-12T00:42:17.319Z,45.73
2018-11-12T00:44:48.758Z,45.07
2018-11-12T00:47:19.475Z,43.03
2018-11-12T00:49:50.463Z,38.40
2018-11-12T00:52:21.373Z,42.87
2018-11-12T00:54:52.821Z,43.03
2018-11-12T00:57:23.556Z,42.00
2018-11-12T00:59:54.390Z,40.90
2018-11-12T01:02:25.765Z,44.13
2018-11-12T01:04:56.576Z,40.47
2018-11-12T01:07:27.660Z,40.10
2018-11-12T01:09:58.290Z,41.00
2018-11-12T01:12:29.016Z,41.17
2018-11-12T01:14:59.787Z,44.73
2018-11-12T01:17:30.129Z,41.00
2018-11-12T01:20:00.941Z,38.63
2018-11-12T01:22:31.951Z,34.27
2018-11-12T01:25:02.247Z,40.00
2018-11-12T01:27:33.708Z,36.63
2018-11-12T01:30:04.829Z,39.57
2018-11-12T01:32:35.777Z,36.63
2018-11-12T01:35:06.646Z,41.50
2018-11-12T01:37:38.341Z,38.93
2018-11-12T01:40:09.948Z,38.53
2018-11-12T01:42:41.186Z,40.70
2018-11-12T01:45:14.862Z,40.13
2018-11-12T01:47:46.719Z,39.07
2018-11-12T01:50:19.123Z,42.33
2018-11-12T01:52:50.199Z,39.37
2018-11-12T01:55:20.749Z,42.63
2018-11-12T01:57:51.474Z,53.43
2018-11-12T02:00:22.895Z,48.53
2018-11-12T02:02:53.901Z,42.57
2018-11-12T02:05:25.211Z,48.13
2018-11-12T02:07:56.416Z,47.27
2018-11-12T02:10:28.066Z,53.50
2018-11-12T02:12:59.302Z,53.30
2018-11-12T02:15:30.453Z,47.33
2018-11-12T02:18:00.390Z,42.37
2018-11-12T02:20:31.154Z,51.30
2018-11-12T02:23:01.996Z,46.33
2018-11-12T02:25:32.692Z,41.57
2018-11-12T02:28:03.370Z,45.83
2018-11-12T02:30:39.421Z,44.03
2018-11-12T02:33:10.182Z,41.10
2018-11-12T02:35:40.472Z,42.83
2018-11-12T02:38:11.573Z,46.07
2018-11-12T02:40:42.531Z,45.00
2018-11-12T02:43:13.600Z,43.60
2018-11-12T02:45:45.344Z,45.93
2018-11-12T02:48:15.540Z,42.70
2018-11-12T02:50:46.403Z,47.60
2018-11-12T02:53:17.215Z,47.70
2018-11-12T02:55:48.009Z,43.07
2018-11-12T02:58:18.796Z,45.27
2018-11-12T03:00:49.601Z,47.77
2018-11-12T03:03:21.331Z,43.83
2018-11-12T03:05:52.155Z,45.37
2018-11-12T03:08:22.300Z,46.40
2018-11-12T03:10:52.529Z,45.37
2018-11-12T03:13:23.411Z,48.47
2018-11-12T03:15:53.933Z,57.40
2018-11-12T03:18:24.706Z,75.27
2018-11-12T03:20:55.663Z,62.37
2018-11-12T03:23:26.577Z,61.33
2018-11-12T03:25:58.367Z,61.77
2018-11-12T03:28:28.866Z,64.67
2018-11-12T03:31:00.097Z,52.90
2018-11-12T03:33:30.744Z,50.07
2018-11-12T03:36:02.378Z,56.53
2018-11-12T03:38:33.685Z,48.50
2018-11-12T03:41:04.543Z,50.50
2018-11-12T03:43:36.135Z,43.37
2018-11-12T03:46:07.198Z,39.97
2018-11-12T03:48:38.099Z,34.97
2018-11-12T03:51:10.095Z,35.73
2018-11-12T03:53:40.491Z,38.60
2018-11-12T03:56:11.552Z,40.20
2018-11-12T03:58:42.470Z,38.30
2018-11-12T04:01:13.238Z,35.70
2018-11-12T04:03:43.957Z,37.93
2018-11-12T04:06:14.928Z,35.20
2018-11-12T04:08:45.557Z,32.93
2018-11-12T04:11:16.340Z,43.03
2018-11-12T04:13:47.274Z,35.67
2018-11-12T04:16:18.264Z,36.07
2018-11-12T04:18:48.164Z,33.97
2018-11-12T04:21:18.837Z,32.30
2018-11-12T04:23:49.960Z,33.63
2018-11-12T04:26:20.844Z,32.83
2018-11-12T04:28:51.796Z,30.00
2018-11-12T04:31:22.332Z,29.63
2018-11-12T04:33:53.517Z,29.90
2018-11-12T04:36:24.233Z,29.30
2018-11-12T04:38:55.408Z,28.37
2018-11-12T04:41:25.402Z,29.63
2018-11-12T04:43:56.172Z,30.50
2018-11-12T04:46:26.907Z,33.97
2018-11-12T04:48:57.727Z,28.53
2018-11-12T04:51:29.237Z,28.90
2018-11-12T04:53:59.629Z,28.33
2018-11-12T04:56:30.505Z,31.40
2018-11-12T04:59:01.273Z,32.03
2018-11-12T05:01:31.942Z,56.63
2018-11-12T05:04:03.538Z,55.77
2018-11-12T05:06:34.361Z,53.90
2018-11-12T05:09:06.095Z,40.93
2018-11-12T05:11:36.066Z,38.13
2018-11-12T05:14:07.598Z,47.93
2018-11-12T05:16:38.654Z,48.13
2018-11-12T05:19:09.646Z,49.13
2018-11-12T05:21:40.675Z,40.63
2018-11-12T05:24:11.282Z,45.10
2018-11-12T05:26:41.630Z,46.93
2018-11-12T05:29:12.544Z,54.77
2018-11-12T05:31:43.387Z,56.93
2018-11-12T05:34:14.012Z,71.73
2018-11-12T05:36:44.608Z,70.87
2018-11-12T05:39:15.644Z,68.53
2018-11-12T05:41:46.751Z,74.27
2018-11-12T05:44:17.946Z,69.30
2018-11-12T05:46:48.626Z,68.27
2018-11-12T05:49:19.376Z,73.10
2018-11-12T05:51:50.072Z,59.73
2018-11-12T05:54:20.859Z,59.40
2018-11-12T05:56:53.195Z,55.17
2018-11-12T05:59:24.203Z,58.47
2018-11-12T06:01:55.461Z,61.97
2018-11-12T06:04:26.072Z,72.43
2018-11-12T06:06:57.578Z,73.00
2018-11-12T06:09:28.713Z,70.37
2018-11-12T06:12:00.325Z,70.03
2018-11-12T06:14:31.592Z,63.43
2018-11-12T06:17:02.678Z,63.17
2018-11-12T06:19:33.682Z,59.77
2018-11-12T06:22:04.635Z,69.90
2018-11-12T06:24:36.008Z,69.13
2018-11-12T06:27:07.201Z,73.60
2018-11-12T06:29:37.284Z,72.63
2018-11-12T06:32:07.781Z,65.43
2018-11-12T06:34:39.476Z,62.67
2018-11-12T06:37:11.644Z,60.50
2018-11-12T06:39:41.958Z,58.40
2018-11-12T06:42:12.538Z,51.50
2018-11-12T06:44:43.098Z,55.83
2018-11-12T06:47:13.755Z,45.37
2018-11-12T06:49:44.983Z,49.80
2018-11-12T06:52:16.249Z,56.37
2018-11-12T06:54:47.413Z,52.03
2018-11-12T06:57:18.701Z,39.33
2018-11-12T06:59:50.100Z,50.23
2018-11-12T07:02:21.151Z,49.03
2018-11-12T07:04:52.012Z,40.13
2018-11-12T07:07:23.437Z,42.77
2018-11-12T07:09:54.217Z,38.40
2018-11-12T07:12:25.079Z,36.57
2018-11-12T07:14:56.285Z,38.00
2018-11-12T07:17:27.009Z,37.10
2018-11-12T07:19:58.812Z,35.77
2018-11-12T07:22:30.107Z,30.43
2018-11-12T07:25:02.269Z,35.67
2018-11-12T07:27:33.059Z,35.27
2018-11-12T07:30:04.503Z,34.17
2018-11-12T07:32:35.533Z,36.80
2018-11-12T07:35:07.533Z,35.87
2018-11-12T07:37:38.891Z,52.77
2018-11-12T07:40:11.821Z,41.83
2018-11-12T07:42:43.338Z,38.57
2018-11-12T07:45:16.946Z,39.60
2018-11-12T07:47:49.316Z,40.03
2018-11-12T07:50:22.927Z,39.73
2018-11-12T07:52:54.851Z,44.57
2018-11-12T07:55:27.128Z,43.87
2018-11-12T07:57:59.505Z,43.07
2018-11-12T08:00:34.151Z,42.17
2018-11-12T08:03:09.123Z,41.83
2018-11-12T08:05:40.636Z,40.67
2018-11-12T08:08:11.308Z,38.70
2018-11-12T08:10:42.524Z,39.63
2018-11-12T08:13:12.753Z,42.83
2018-11-12T08:15:44.420Z,61.17
2018-11-12T08:18:15.459Z,39.53
2018-11-12T08:20:46.672Z,43.73
2018-11-12T08:23:17.641Z,107.40
2018-11-12T08:25:48.858Z,45.50
2018-11-12T08:28:19.686Z,87.07
2018-11-12T08:30:50.494Z,51.37
2018-11-12T08:33:21.359Z,49.97
2018-11-12T08:35:52.418Z,220.60
2018-11-12T08:38:23.235Z,55.27
2018-11-12T08:40:54.448Z,67.30
2018-11-12T08:43:24.405Z,73.53
2018-11-12T08:45:55.129Z,42.53
2018-11-12T08:48:26.389Z,41.80
2018-11-12T08:50:57.174Z,62.27
2018-11-12T08:53:28.301Z,34.07
2018-11-12T08:55:59.012Z,31.60
2018-11-12T08:58:29.844Z,32.20
2018-11-12T09:01:00.741Z,30.93
2018-11-12T09:03:31.951Z,32.27
2018-11-12T09:06:03.418Z,29.77
2018-11-12T09:08:34.184Z,28.67
2018-11-12T09:11:05.295Z,27.23
2018-11-12T09:13:36.544Z,32.60
2018-11-12T09:16:07.840Z,32.67
2018-11-12T09:18:39.220Z,26.80
2018-11-12T09:21:10.300Z,27.93
2018-11-12T09:23:42.116Z,27.97
2018-11-12T09:26:12.876Z,30.53
2018-11-12T09:28:44.252Z,27.60
2018-11-12T09:31:17.807Z,27.80
2018-11-12T09:33:47.561Z,26.60
2018-11-12T09:36:19.018Z,27.43
2018-11-12T09:38:50.264Z,28.97
2018-11-12T09:41:21.135Z,30.73
2018-11-12T09:43:52.163Z,27.00
2018-11-12T09:46:24.138Z,28.43
2018-11-12T09:48:54.902Z,27.67
2018-11-12T09:51:26.045Z,28.17
2018-11-12T09:53:56.875Z,26.93
2018-11-12T09:56:28.330Z,28.50
2018-11-12T09:58:59.170Z,28.37
2018-11-12T10:01:30.427Z,30.63
2018-11-12T10:04:03.267Z,27.77
2018-11-12T10:06:34.846Z,49.30
2018-11-12T10:09:07.373Z,39.67
2018-11-12T10:11:38.791Z,40.17
2018-11-12T10:14:09.650Z,35.53
2018-11-12T10:16:42.466Z,30.63
2018-11-12T10:19:09.480Z,28.67
2018-11-12T10:21:40.431Z,30.90
2018-11-12T10:24:12.101Z,30.40
2018-11-12T10:26:43.606Z,28.10
2018-11-12T10:29:14.364Z,27.40
2018-11-12T10:31:45.297Z,36.67
2018-11-12T10:34:16.220Z,29.63
2018-11-12T10:36:47.101Z,30.90
2018-11-12T10:39:18.126Z,31.27
2018-11-12T10:41:49.370Z,34.17
2018-11-12T10:44:21.291Z,52.43
2018-11-12T10:46:52.515Z,28.47
2018-11-12T10:49:23.560Z,30.80
2018-11-12T10:51:54.692Z,30.00
2018-11-12T10:54:26.337Z,32.37
2018-11-12T10:56:57.715Z,58.17
2018-11-12T10:59:29.516Z,27.90
2018-11-12T11:02:06.227Z,65.83
2018-11-12T11:04:37.686Z,28.50
2018-11-12T11:07:09.185Z,29.30
2018-11-12T11:09:40.086Z,28.87
2018-11-12T11:12:10.969Z,25.60
2018-11-12T11:14:41.563Z,24.37
2018-11-12T11:17:13.183Z,25.53
2018-11-12T11:19:44.752Z,27.50
2018-11-12T11:22:15.648Z,26.73
2018-11-12T11:24:46.825Z,24.60
2018-11-12T11:27:18.152Z,27.30
2018-11-12T11:29:48.878Z,26.10
2018-11-12T11:32:19.566Z,43.90
2018-11-12T11:34:50.494Z,27.17
2018-11-12T11:37:21.567Z,25.50
2018-11-12T11:39:52.630Z,27.60
2018-11-12T11:42:23.406Z,27.43
2018-11-12T11:44:57.135Z,27.20
2018-11-12T11:47:28.117Z,25.60
2018-11-12T11:49:58.846Z,25.40
2018-11-12T11:52:29.157Z,26.83
2018-11-12T11:55:01.741Z,25.70
2018-11-12T11:57:33.532Z,25.20
2018-11-12T12:00:05.679Z,27.13
2018-11-12T12:02:36.570Z,25.07
2018-11-12T12:05:08.779Z,25.00
2018-11-12T12:07:39.706Z,24.07
2018-11-12T12:10:11.835Z,25.87
2018-11-12T12:12:43.344Z,20.47
2018-11-12T12:15:16.697Z,20.07
2018-11-12T12:17:48.125Z,21.47
2018-11-12T12:20:20.342Z,19.33
2018-11-12T12:22:51.310Z,18.77
2018-11-12T12:25:21.993Z,18.50
2018-11-12T12:27:52.927Z,17.43
2018-11-12T12:30:26.131Z,18.80
2018-11-12T12:32:58.009Z,18.40
2018-11-12T12:35:28.702Z,15.63
2018-11-12T12:37:59.509Z,14.63
2018-11-12T12:40:30.759Z,16.20
2018-11-12T12:43:02.421Z,19.07
2018-11-12T12:45:33.713Z,18.97
2018-11-12T12:48:05.111Z,18.77
2018-11-12T12:50:36.184Z,14.07
2018-11-12T12:53:07.952Z,19.23
2018-11-12T12:55:38.760Z,18.37
2018-11-12T12:58:09.519Z,17.87
2018-11-12T13:00:40.004Z,19.50
2018-11-12T13:03:10.937Z,18.27
2018-11-12T13:05:42.620Z,23.00
2018-11-12T13:08:13.990Z,20.57
2018-11-12T13:10:44.941Z,27.07
2018-11-12T13:13:16.111Z,17.87
2018-11-12T13:15:46.934Z,16.70
2018-11-12T13:18:17.694Z,16.50
2018-11-12T13:20:48.582Z,38.27
2018-11-12T13:23:19.587Z,37.50
2018-11-12T13:25:51.585Z,23.63
2018-11-12T13:28:22.055Z,18.10
2018-11-12T13:30:52.946Z,18.47
2018-11-12T13:33:24.545Z,19.40
2018-11-12T13:35:57.090Z,19.03
2018-11-12T13:38:28.383Z,21.80
2018-11-12T13:41:00.473Z,22.67
2018-11-12T13:43:32.069Z,23.10
2018-11-12T13:46:03.649Z,21.67
2018-11-12T13:48:34.384Z,20.20
2018-11-12T13:51:05.112Z,21.33
2018-11-12T13:53:35.757Z,19.03
2018-11-12T13:56:06.988Z,19.63
2018-11-12T13:58:37.835Z,19.20
2018-11-12T14:01:08.437Z,18.70
2018-11-12T14:03:39.269Z,20.00
2018-11-12T14:06:10.086Z,21.40
2018-11-12T14:08:41.272Z,22.47
2018-11-12T14:11:12.441Z,25.27
2018-11-12T14:13:43.365Z,25.20
2018-11-12T14:16:13.334Z,26.30
2018-11-12T14:18:44.516Z,89.77
2018-11-12T14:21:17.690Z,29.93
2018-11-12T14:23:53.698Z,27.00
2018-11-12T14:26:25.476Z,24.77
2018-11-12T14:28:57.031Z,24.53
2018-11-12T14:31:30.545Z,25.43
2018-11-12T14:34:01.931Z,24.10
2018-11-12T14:36:33.308Z,23.60
2018-11-12T14:39:05.227Z,23.37
2018-11-12T14:41:36.269Z,26.30
2018-11-12T14:44:07.667Z,25.17
2018-11-12T14:46:38.539Z,25.20
2018-11-12T14:49:09.395Z,24.13
2018-11-12T14:51:40.493Z,27.80
2018-11-12T14:54:11.397Z,32.50
2018-11-12T14:56:42.784Z,23.40
2018-11-12T14:59:14.392Z,24.83
2018-11-12T15:01:45.856Z,25.17
2018-11-12T15:04:16.880Z,23.43
2018-11-12T15:06:49.004Z,103.60
2018-11-12T15:09:19.804Z,73.17
2018-11-12T15:11:51.042Z,33.97
2018-11-12T15:14:21.807Z,32.20
2018-11-12T15:16:52.915Z,27.57
2018-11-12T15:19:23.987Z,29.73
2018-11-12T15:21:55.816Z,27.30
2018-11-12T15:24:27.601Z,26.10
2018-11-12T15:26:58.734Z,23.17
2018-11-12T15:29:30.105Z,32.80
2018-11-12T15:32:01.102Z,27.87
2018-11-12T15:34:32.462Z,26.03
2018-11-12T15:37:03.614Z,23.07
2018-11-12T15:39:34.767Z,22.27
2018-11-12T15:42:06.752Z,24.43
2018-11-12T15:44:37.830Z,26.60
2018-11-12T15:47:09.018Z,29.67
2018-11-12T15:49:39.982Z,22.80
2018-11-12T15:52:11.213Z,25.33
2018-11-12T15:54:43.082Z,27.03
2018-11-12T15:57:14.658Z,26.17
2018-11-12T15:59:45.863Z,24.93
2018-11-12T16:02:16.468Z,26.40
2018-11-12T16:04:47.564Z,25.87
2018-11-12T16:07:18.874Z,26.60
2018-11-12T16:09:50.100Z,26.57
2018-11-12T16:12:21.513Z,25.47
2018-11-12T16:14:53.762Z,28.20
2018-11-12T16:17:24.737Z,28.43
2018-11-12T16:19:56.002Z,28.27
2018-11-12T16:22:27.241Z,31.67
2018-11-12T16:24:58.388Z,37.80
2018-11-12T16:27:29.552Z,43.73
2018-11-12T16:30:01.814Z,47.23
2018-11-12T16:32:32.109Z,46.33
2018-11-12T16:35:03.032Z,45.43
2018-11-12T16:37:34.242Z,54.13
2018-11-12T16:40:05.556Z,64.50
2018-11-12T16:42:36.638Z,71.57
2018-11-12T16:45:08.361Z,72.67
2018-11-12T16:47:39.345Z,94.80
2018-11-12T16:50:11.837Z,83.07
2018-11-12T16:52:42.987Z,82.67
2018-11-12T16:55:17.022Z,74.90
2018-11-12T16:57:48.319Z,76.87
2018-11-12T17:00:20.690Z,65.50
2018-11-12T17:02:51.951Z,62.77
2018-11-12T17:05:24.567Z,57.07
2018-11-12T17:07:55.923Z,52.50
2018-11-12T17:10:27.828Z,53.93
2018-11-12T17:12:58.983Z,59.03
2018-11-12T17:15:30.226Z,64.70
2018-11-12T17:18:01.590Z,60.10
2018-11-12T17:20:31.726Z,65.53
2018-11-12T17:23:02.499Z,65.13
2018-11-12T17:25:33.202Z,65.03
2018-11-12T17:28:04.268Z,65.40
2018-11-12T17:30:35.227Z,64.10
2018-11-12T17:33:06.435Z,62.77
2018-11-12T17:35:37.009Z,56.77
2018-11-12T17:38:08.241Z,66.57
2018-11-12T17:40:40.033Z,58.10
2018-11-12T17:43:11.084Z,58.70
2018-11-12T17:45:42.446Z,58.70
2018-11-12T17:48:14.125Z,51.33
2018-11-12T17:50:46.821Z,62.00
2018-11-12T17:53:18.134Z,60.30
2018-11-12T17:55:51.045Z,62.30
2018-11-12T17:58:22.333Z,57.00
2018-11-12T18:00:53.450Z,59.60
2018-11-12T18:03:24.785Z,60.43
2018-11-12T18:05:57.331Z,52.97
2018-11-12T18:08:28.584Z,51.73
2018-11-12T18:11:01.191Z,53.57
2018-11-12T18:13:32.590Z,60.93
2018-11-12T18:16:03.967Z,54.40
2018-11-12T18:18:35.232Z,58.27
2018-11-12T18:21:06.481Z,55.00
2018-11-12T18:23:37.233Z,62.00
2018-11-12T18:26:07.829Z,58.40
2018-11-12T18:28:39.103Z,63.90
2018-11-12T18:31:10.331Z,50.40
2018-11-12T18:33:41.580Z,65.97
2018-11-12T18:36:13.489Z,72.30
2018-11-12T18:38:44.829Z,70.27
2018-11-12T18:41:16.115Z,93.03
2018-11-12T18:43:47.717Z,112.87
2018-11-12T18:46:18.797Z,75.07
2018-11-12T18:48:49.897Z,96.03
2018-11-12T18:51:21.472Z,107.73
2018-11-12T18:53:52.679Z,146.17
2018-11-12T18:56:23.893Z,90.73
2018-11-12T18:58:55.013Z,100.90
2018-11-12T19:01:26.059Z,120.47
2018-11-12T19:03:57.404Z,117.53
2018-11-12T19:06:29.155Z,113.43
2018-11-12T19:09:00.431Z,118.33
2018-11-12T19:11:31.852Z,106.20
2018-11-12T19:14:03.191Z,93.77
2018-11-12T19:16:34.485Z,99.23
2018-11-12T19:19:05.706Z,93.03
2018-11-12T19:21:37.163Z,77.97
2018-11-12T19:24:08.692Z,90.23
2018-11-12T19:26:39.478Z,96.97
2018-11-12T19:29:10.740Z,98.70
2018-11-12T19:31:42.249Z,110.60
2018-11-12T19:34:14.558Z,111.20
2018-11-12T19:36:46.639Z,106.70
2018-11-12T19:39:18.224Z,113.10
2018-11-12T19:41:49.619Z,119.47
2018-11-12T19:44:21.076Z,116.10
2018-11-12T19:46:53.051Z,112.90
2018-11-12T19:49:24.366Z,111.90
2018-11-12T19:51:55.724Z,115.60
2018-11-12T19:54:26.967Z,124.43
2018-11-12T19:56:58.255Z,119.87
2018-11-12T19:59:29.690Z,109.03
2018-11-12T20:02:00.863Z,111.27
2018-11-12T20:04:32.517Z,108.87
2018-11-12T20:07:04.349Z,116.33
2018-11-12T20:09:35.901Z,109.13
2018-11-12T20:12:07.496Z,109.53
2018-11-12T20:14:38.317Z,107.67
2018-11-12T20:17:09.909Z,106.70
2018-11-12T20:19:41.094Z,110.13
2018-11-12T20:22:12.556Z,112.00
2018-11-12T20:24:43.694Z,102.13
2018-11-12T20:27:14.706Z,101.23
2018-11-12T20:29:45.718Z,100.23
2018-11-12T20:32:17.042Z,97.80
2018-11-12T20:34:48.486Z,97.93
2018-11-12T20:37:19.934Z,100.97
2018-11-12T20:39:50.951Z,95.63
2018-11-12T20:42:22.045Z,99.30
2018-11-12T20:44:53.200Z,95.53
2018-11-12T20:47:24.098Z,97.03
2018-11-12T20:49:55.751Z,102.20
2018-11-12T20:52:26.909Z,95.30
2018-11-12T20:54:58.005Z,103.90
2018-11-12T20:57:29.455Z,107.40
2018-11-12T21:00:00.642Z,97.10
2018-11-12T21:02:31.530Z,93.23
2018-11-12T21:05:02.795Z,99.87
2018-11-12T21:07:34.116Z,98.60
2018-11-12T21:10:05.163Z,91.60
2018-11-12T21:12:36.688Z,89.27
2018-11-12T21:15:09.270Z,80.83
2018-11-12T21:17:40.048Z,88.90
2018-11-12T21:20:16.156Z,86.80
2018-11-12T21:22:47.786Z,87.60
2018-11-12T21:25:20.515Z,89.17
2018-11-12T21:27:51.976Z,83.20
2018-11-12T21:30:25.369Z,88.77
2018-11-12T21:32:56.597Z,86.60
2018-11-12T21:35:27.910Z,88.17
2018-11-12T21:37:59.230Z,83.50
2018-11-12T21:40:30.778Z,86.63
2018-11-12T21:43:01.954Z,87.13
2018-11-12T21:45:33.298Z,93.90
2018-11-12T21:48:04.646Z,101.17
2018-11-12T21:50:35.110Z,85.87
2018-11-12T21:53:06.359Z,92.30
2018-11-12T21:55:37.702Z,92.10
2018-11-12T21:58:08.989Z,89.87
2018-11-12T22:00:39.235Z,90.27
2018-11-12T22:03:10.697Z,97.40
2018-11-12T22:05:41.960Z,101.47
2018-11-12T22:08:13.228Z,96.47
2018-11-12T22:10:44.051Z,100.03
2018-11-12T22:13:14.953Z,99.47
2018-11-12T22:15:46.352Z,115.97
2018-11-12T22:18:17.718Z,104.73
2018-11-12T22:20:49.008Z,105.33
2018-11-12T22:23:20.351Z,106.80
2018-11-12T22:25:51.555Z,101.57
2018-11-12T22:28:22.436Z,102.57
2018-11-12T22:30:54.050Z,98.13
2018-11-12T22:33:24.800Z,94.87
2018-11-12T22:35:55.860Z,97.10
2018-11-12T22:38:26.841Z,97.97
2018-11-12T22:40:57.996Z,95.63
2018-11-12T22:43:29.251Z,91.77
2018-11-12T22:46:00.546Z,92.60
2018-11-12T22:48:31.732Z,88.60
2018-11-12T22:51:02.559Z,82.70
2018-11-12T22:53:34.230Z,86.87
2018-11-12T22:56:05.673Z,87.60
2018-11-12T22:58:36.013Z,83.00
2018-11-12T23:01:06.811Z,83.43
2018-11-12T23:03:37.784Z,91.50
2018-11-12T23:06:14.152Z,85.40
2018-11-12T23:08:44.738Z,84.33
2018-11-12T23:11:15.501Z,85.60
2018-11-12T23:13:46.280Z,84.53
2018-11-12T23:16:17.067Z,85.07
2018-11-12T23:18:47.727Z,80.53
2018-11-12T23:21:18.474Z,79.90
2018-11-12T23:23:49.693Z,77.43
2018-11-12T23:26:20.635Z,81.93
2018-11-12T23:28:51.634Z,87.67
2018-11-12T23:31:22.594Z,82.23
2018-11-12T23:33:53.493Z,85.27
2018-11-12T23:36:24.526Z,86.77
2018-11-12T23:38:55.489Z,87.73
2018-11-12T23:41:26.315Z,81.40
2018-11-12T23:43:57.839Z,86.30
2018-11-12T23:46:28.430Z,83.47
2018-11-12T23:48:59.835Z,78.63
2018-11-12T23:51:31.347Z,76.67
2018-11-12T23:54:02.837Z,71.93
2018-11-12T23:56:33.102Z,74.20
2018-11-12T23:59:04.040Z,81.77
